sensor_id;sensor_type;location;lat;lon;timestamp;P1;durP1;ratioP1;P2;durP2;ratioP2
26014;SDS011;13793;55.388;37.844;2023-04-07T00:02:14;4.13;;;1.70;;
26014;SDS011;13793;55.388;37.844;2023-04-07T00:04:44;2.20;;;1.67;;
26014;SDS011;13793;55.388;37.844;2023-04-07T00:07:15;4.53;;;1.53;;
26014;SDS011;13793;55.388;37.844;2023-04-07T00:09:45;2.67;;;1.50;;
26014;SDS011;13793;55.388;37.844;2023-04-07T00:12:16;3.13;;;1.57;;
26014;SDS011;13793;55.388;37.844;2023-04-07T00:14:46;4.50;;;1.57;;
26014;SDS011;13793;55.388;37.844;2023-04-07T00:17:17;4.90;;;2.13;;
26014;SDS011;13793;55.388;37.844;2023-04-07T00:19:47;5.70;;;1.70;;
26014;SDS011;13793;55.388;37.844;2023-04-07T00:22:18;3.20;;;1.70;;
26014;SDS011;13793;55.388;37.844;2023-04-07T00:24:48;4.03;;;1.43;;
26014;SDS011;13793;55.388;37.844;2023-04-07T00:27:19;2.17;;;1.50;;
26014;SDS011;13793;55.388;37.844;2023-04-07T00:29:50;3.37;;;1.77;;
26014;SDS011;13793;55.388;37.844;2023-04-07T00:32:24;5.43;;;1.53;;
26014;SDS011;13793;55.388;37.844;2023-04-07T00:34:54;4.27;;;1.83;;
26014;SDS011;13793;55.388;37.844;2023-04-07T00:37:25;4.70;;;1.90;;
26014;SDS011;13793;55.388;37.844;2023-04-07T00:39:55;2.50;;;1.60;;
26014;SDS011;13793;55.388;37.844;2023-04-07T00:42:26;4.97;;;1.97;;
26014;SDS011;13793;55.388;37.844;2023-04-07T00:44:57;2.70;;;2.00;;
26014;SDS011;13793;55.388;37.844;2023-04-07T00:47:29;2.40;;;1.77;;
26014;SDS011;13793;55.388;37.844;2023-04-07T00:50:00;4.03;;;1.87;;
26014;SDS011;13793;55.388;37.844;2023-04-07T00:52:32;3.27;;;2.00;;
26014;SDS011;13793;55.388;37.844;2023-04-07T00:55:03;3.77;;;2.30;;
26014;SDS011;13793;55.388;37.844;2023-04-07T00:57:34;3.27;;;1.97;;
26014;SDS011;13793;55.388;37.844;2023-04-07T01:00:05;3.80;;;2.00;;
26014;SDS011;13793;55.388;37.844;2023-04-07T01:02:42;3.50;;;1.80;;
26014;SDS011;13793;55.388;37.844;2023-04-07T01:05:25;2.63;;;2.07;;
26014;SDS011;13793;55.388;37.844;2023-04-07T01:13:35;3.13;;;1.93;;
26014;SDS011;13793;55.388;37.844;2023-04-07T01:16:11;4.93;;;2.10;;
26014;SDS011;13793;55.388;37.844;2023-04-07T01:18:46;3.80;;;2.00;;
26014;SDS011;13793;55.388;37.844;2023-04-07T01:21:17;4.07;;;2.13;;
26014;SDS011;13793;55.388;37.844;2023-04-07T01:23:59;5.10;;;2.10;;
26014;SDS011;13793;55.388;37.844;2023-04-07T01:26:38;6.83;;;2.00;;
26014;SDS011;13793;55.388;37.844;2023-04-07T01:31:57;3.80;;;2.33;;
26014;SDS011;13793;55.388;37.844;2023-04-07T01:34:29;4.77;;;2.07;;
26014;SDS011;13793;55.388;37.844;2023-04-07T01:37:00;4.10;;;2.20;;
26014;SDS011;13793;55.388;37.844;2023-04-07T01:39:31;3.60;;;2.47;;
26014;SDS011;13793;55.388;37.844;2023-04-07T01:42:03;4.40;;;1.93;;
26014;SDS011;13793;55.388;37.844;2023-04-07T01:44:34;4.23;;;2.10;;
26014;SDS011;13793;55.388;37.844;2023-04-07T01:47:05;5.13;;;1.90;;
26014;SDS011;13793;55.388;37.844;2023-04-07T01:49:37;3.67;;;2.13;;
26014;SDS011;13793;55.388;37.844;2023-04-07T01:52:09;4.60;;;2.40;;
26014;SDS011;13793;55.388;37.844;2023-04-07T01:54:40;3.43;;;2.13;;
26014;SDS011;13793;55.388;37.844;2023-04-07T01:57:10;4.70;;;2.50;;
26014;SDS011;13793;55.388;37.844;2023-04-07T01:59:41;3.33;;;2.23;;
26014;SDS011;13793;55.388;37.844;2023-04-07T02:02:12;8.03;;;2.50;;
26014;SDS011;13793;55.388;37.844;2023-04-07T02:07:28;7.27;;;2.70;;
26014;SDS011;13793;55.388;37.844;2023-04-07T02:10:01;4.17;;;2.80;;
26014;SDS011;13793;55.388;37.844;2023-04-07T02:12:33;4.23;;;2.47;;
26014;SDS011;13793;55.388;37.844;2023-04-07T02:15:07;5.00;;;2.67;;
26014;SDS011;13793;55.388;37.844;2023-04-07T02:17:42;6.07;;;2.80;;
26014;SDS011;13793;55.388;37.844;2023-04-07T02:20:11;6.53;;;2.50;;
26014;SDS011;13793;55.388;37.844;2023-04-07T02:22:43;5.20;;;2.50;;
26014;SDS011;13793;55.388;37.844;2023-04-07T02:25:20;6.10;;;2.50;;
26014;SDS011;13793;55.388;37.844;2023-04-07T02:27:55;6.20;;;2.63;;
26014;SDS011;13793;55.388;37.844;2023-04-07T02:30:27;6.27;;;2.60;;
26014;SDS011;13793;55.388;37.844;2023-04-07T02:32:58;7.73;;;2.83;;
26014;SDS011;13793;55.388;37.844;2023-04-07T02:35:29;8.63;;;2.77;;
26014;SDS011;13793;55.388;37.844;2023-04-07T02:38:01;3.73;;;2.30;;
26014;SDS011;13793;55.388;37.844;2023-04-07T02:40:31;4.80;;;2.37;;
26014;SDS011;13793;55.388;37.844;2023-04-07T02:43:01;5.30;;;2.63;;
26014;SDS011;13793;55.388;37.844;2023-04-07T02:45:32;3.87;;;2.37;;
26014;SDS011;13793;55.388;37.844;2023-04-07T02:48:04;5.33;;;2.20;;
26014;SDS011;13793;55.388;37.844;2023-04-07T02:50:35;5.07;;;2.70;;
26014;SDS011;13793;55.388;37.844;2023-04-07T02:53:06;3.40;;;2.20;;
26014;SDS011;13793;55.388;37.844;2023-04-07T02:55:36;4.73;;;2.73;;
26014;SDS011;13793;55.388;37.844;2023-04-07T02:58:07;4.63;;;2.43;;
26014;SDS011;13793;55.388;37.844;2023-04-07T03:00:38;3.93;;;2.30;;
26014;SDS011;13793;55.388;37.844;2023-04-07T03:03:11;4.13;;;2.53;;
26014;SDS011;13793;55.388;37.844;2023-04-07T03:05:43;4.37;;;2.23;;
26014;SDS011;13793;55.388;37.844;2023-04-07T03:08:13;5.47;;;2.50;;
26014;SDS011;13793;55.388;37.844;2023-04-07T03:10:45;4.37;;;2.50;;
26014;SDS011;13793;55.388;37.844;2023-04-07T03:13:16;4.53;;;2.40;;
26014;SDS011;13793;55.388;37.844;2023-04-07T03:15:47;3.43;;;2.30;;
26014;SDS011;13793;55.388;37.844;2023-04-07T03:18:19;4.40;;;2.50;;
26014;SDS011;13793;55.388;37.844;2023-04-07T03:20:49;3.93;;;2.50;;
26014;SDS011;13793;55.388;37.844;2023-04-07T03:23:20;4.47;;;2.40;;
26014;SDS011;13793;55.388;37.844;2023-04-07T03:25:51;5.37;;;2.67;;
26014;SDS011;13793;55.388;37.844;2023-04-07T03:28:21;3.77;;;2.53;;
26014;SDS011;13793;55.388;37.844;2023-04-07T03:30:52;6.87;;;2.83;;
26014;SDS011;13793;55.388;37.844;2023-04-07T03:33:23;3.57;;;2.20;;
26014;SDS011;13793;55.388;37.844;2023-04-07T03:35:55;4.97;;;2.20;;
26014;SDS011;13793;55.388;37.844;2023-04-07T03:38:26;4.60;;;2.33;;
26014;SDS011;13793;55.388;37.844;2023-04-07T03:40:58;3.93;;;2.20;;
26014;SDS011;13793;55.388;37.844;2023-04-07T03:43:28;6.00;;;2.57;;
26014;SDS011;13793;55.388;37.844;2023-04-07T03:45:59;7.03;;;2.60;;
26014;SDS011;13793;55.388;37.844;2023-04-07T03:48:30;4.50;;;2.27;;
26014;SDS011;13793;55.388;37.844;2023-04-07T03:51:08;4.87;;;2.50;;
26014;SDS011;13793;55.388;37.844;2023-04-07T03:53:39;5.03;;;2.80;;
26014;SDS011;13793;55.388;37.844;2023-04-07T03:56:14;6.10;;;2.73;;
26014;SDS011;13793;55.388;37.844;2023-04-07T03:58:46;4.70;;;2.70;;
26014;SDS011;13793;55.388;37.844;2023-04-07T04:01:18;4.20;;;2.37;;
26014;SDS011;13793;55.388;37.844;2023-04-07T04:03:50;4.33;;;2.50;;
26014;SDS011;13793;55.388;37.844;2023-04-07T04:06:25;4.97;;;2.07;;
26014;SDS011;13793;55.388;37.844;2023-04-07T04:08:57;5.70;;;2.40;;
26014;SDS011;13793;55.388;37.844;2023-04-07T04:11:27;4.40;;;2.17;;
26014;SDS011;13793;55.388;37.844;2023-04-07T04:14:00;6.13;;;2.93;;
26014;SDS011;13793;55.388;37.844;2023-04-07T04:16:32;2.40;;;2.10;;
26014;SDS011;13793;55.388;37.844;2023-04-07T04:19:05;4.80;;;2.20;;
26014;SDS011;13793;55.388;37.844;2023-04-07T04:21:36;4.77;;;2.60;;
26014;SDS011;13793;55.388;37.844;2023-04-07T04:24:09;6.07;;;2.53;;
26014;SDS011;13793;55.388;37.844;2023-04-07T04:26:40;3.93;;;2.30;;
26014;SDS011;13793;55.388;37.844;2023-04-07T04:29:13;5.07;;;2.57;;
26014;SDS011;13793;55.388;37.844;2023-04-07T04:31:43;4.83;;;2.43;;
26014;SDS011;13793;55.388;37.844;2023-04-07T04:34:15;5.77;;;2.10;;
26014;SDS011;13793;55.388;37.844;2023-04-07T04:36:46;5.63;;;2.50;;
26014;SDS011;13793;55.388;37.844;2023-04-07T04:39:18;4.83;;;1.83;;
26014;SDS011;13793;55.388;37.844;2023-04-07T04:41:49;6.20;;;2.03;;
26014;SDS011;13793;55.388;37.844;2023-04-07T04:44:21;7.13;;;2.40;;
26014;SDS011;13793;55.388;37.844;2023-04-07T04:46:52;4.47;;;1.93;;
26014;SDS011;13793;55.388;37.844;2023-04-07T04:49:22;5.43;;;2.00;;
26014;SDS011;13793;55.388;37.844;2023-04-07T04:51:53;4.30;;;1.70;;
26014;SDS011;13793;55.388;37.844;2023-04-07T04:54:24;4.50;;;2.10;;
26014;SDS011;13793;55.388;37.844;2023-04-07T04:56:55;5.63;;;2.00;;
26014;SDS011;13793;55.388;37.844;2023-04-07T04:59:25;3.83;;;1.80;;
26014;SDS011;13793;55.388;37.844;2023-04-07T05:02:03;4.10;;;2.20;;
26014;SDS011;13793;55.388;37.844;2023-04-07T05:04:34;3.57;;;1.90;;
26014;SDS011;13793;55.388;37.844;2023-04-07T05:07:06;5.17;;;2.10;;
26014;SDS011;13793;55.388;37.844;2023-04-07T05:09:37;5.73;;;1.97;;
26014;SDS011;13793;55.388;37.844;2023-04-07T05:12:09;3.23;;;2.03;;
26014;SDS011;13793;55.388;37.844;2023-04-07T05:14:41;4.13;;;2.23;;
26014;SDS011;13793;55.388;37.844;2023-04-07T05:17:11;3.73;;;2.00;;
26014;SDS011;13793;55.388;37.844;2023-04-07T05:19:42;5.23;;;2.10;;
26014;SDS011;13793;55.388;37.844;2023-04-07T05:22:14;4.17;;;2.00;;
26014;SDS011;13793;55.388;37.844;2023-04-07T05:24:46;2.90;;;1.97;;
26014;SDS011;13793;55.388;37.844;2023-04-07T05:27:17;3.77;;;2.23;;
26014;SDS011;13793;55.388;37.844;2023-04-07T05:29:49;2.60;;;1.87;;
26014;SDS011;13793;55.388;37.844;2023-04-07T05:32:25;5.53;;;2.10;;
26014;SDS011;13793;55.388;37.844;2023-04-07T05:34:57;3.70;;;2.10;;
26014;SDS011;13793;55.388;37.844;2023-04-07T05:37:30;3.10;;;1.93;;
26014;SDS011;13793;55.388;37.844;2023-04-07T05:40:02;4.37;;;2.00;;
26014;SDS011;13793;55.388;37.844;2023-04-07T05:42:33;4.07;;;2.17;;
26014;SDS011;13793;55.388;37.844;2023-04-07T05:45:04;4.83;;;2.07;;
26014;SDS011;13793;55.388;37.844;2023-04-07T05:47:37;4.40;;;2.10;;
26014;SDS011;13793;55.388;37.844;2023-04-07T05:50:08;4.13;;;1.93;;
26014;SDS011;13793;55.388;37.844;2023-04-07T05:52:42;5.87;;;2.30;;
26014;SDS011;13793;55.388;37.844;2023-04-07T05:55:24;3.70;;;2.17;;
26014;SDS011;13793;55.388;37.844;2023-04-07T05:57:55;3.73;;;2.00;;
26014;SDS011;13793;55.388;37.844;2023-04-07T06:00:27;4.23;;;1.73;;
26014;SDS011;13793;55.388;37.844;2023-04-07T06:02:59;5.77;;;2.30;;
26014;SDS011;13793;55.388;37.844;2023-04-07T06:05:33;3.60;;;1.97;;
26014;SDS011;13793;55.388;37.844;2023-04-07T06:08:03;4.67;;;2.00;;
26014;SDS011;13793;55.388;37.844;2023-04-07T06:10:35;3.20;;;1.90;;
26014;SDS011;13793;55.388;37.844;2023-04-07T06:13:07;4.93;;;2.00;;
26014;SDS011;13793;55.388;37.844;2023-04-07T06:15:38;5.23;;;2.53;;
26014;SDS011;13793;55.388;37.844;2023-04-07T06:18:10;3.33;;;1.80;;
26014;SDS011;13793;55.388;37.844;2023-04-07T06:20:41;3.77;;;1.90;;
26014;SDS011;13793;55.388;37.844;2023-04-07T06:23:11;3.35;;;1.82;;
26014;SDS011;13793;55.388;37.844;2023-04-07T06:25:42;3.80;;;2.00;;
26014;SDS011;13793;55.388;37.844;2023-04-07T06:28:13;3.07;;;1.70;;
26014;SDS011;13793;55.388;37.844;2023-04-07T06:30:43;5.53;;;2.27;;
26014;SDS011;13793;55.388;37.844;2023-04-07T06:33:15;5.25;;;2.35;;
26014;SDS011;13793;55.388;37.844;2023-04-07T06:35:46;5.53;;;2.40;;
26014;SDS011;13793;55.388;37.844;2023-04-07T06:38:17;5.47;;;2.15;;
26014;SDS011;13793;55.388;37.844;2023-04-07T06:40:47;3.92;;;2.40;;
26014;SDS011;13793;55.388;37.844;2023-04-07T06:43:18;4.50;;;2.30;;
26014;SDS011;13793;55.388;37.844;2023-04-07T06:45:53;4.33;;;2.10;;
26014;SDS011;13793;55.388;37.844;2023-04-07T06:48:24;3.75;;;2.35;;
26014;SDS011;13793;55.388;37.844;2023-04-07T06:50:54;3.02;;;2.02;;
26014;SDS011;13793;55.388;37.844;2023-04-07T06:53:25;4.20;;;2.00;;
26014;SDS011;13793;55.388;37.844;2023-04-07T06:56:09;4.12;;;2.15;;
26014;SDS011;13793;55.388;37.844;2023-04-07T06:58:39;4.03;;;2.00;;
26014;SDS011;13793;55.388;37.844;2023-04-07T07:01:09;4.30;;;2.00;;
26014;SDS011;13793;55.388;37.844;2023-04-07T07:03:40;2.95;;;1.85;;
26014;SDS011;13793;55.388;37.844;2023-04-07T07:06:11;3.87;;;2.17;;
26014;SDS011;13793;55.388;37.844;2023-04-07T07:08:41;4.35;;;1.95;;
26014;SDS011;13793;55.388;37.844;2023-04-07T07:11:12;2.22;;;1.60;;
26014;SDS011;13793;55.388;37.844;2023-04-07T07:13:43;4.87;;;3.12;;
26014;SDS011;13793;55.388;37.844;2023-04-07T07:16:13;4.62;;;2.00;;
26014;SDS011;13793;55.388;37.844;2023-04-07T07:18:44;3.12;;;1.90;;
26014;SDS011;13793;55.388;37.844;2023-04-07T07:21:14;3.20;;;1.92;;
26014;SDS011;13793;55.388;37.844;2023-04-07T07:23:46;5.45;;;1.82;;
26014;SDS011;13793;55.388;37.844;2023-04-07T07:26:16;4.03;;;1.55;;
26014;SDS011;13793;55.388;37.844;2023-04-07T07:28:46;2.33;;;1.42;;
26014;SDS011;13793;55.388;37.844;2023-04-07T07:31:17;2.45;;;1.45;;
26014;SDS011;13793;55.388;37.844;2023-04-07T07:33:48;5.22;;;1.70;;
26014;SDS011;13793;55.388;37.844;2023-04-07T07:36:19;2.67;;;1.60;;
26014;SDS011;13793;55.388;37.844;2023-04-07T07:38:50;3.83;;;1.70;;
26014;SDS011;13793;55.388;37.844;2023-04-07T07:41:20;5.20;;;1.50;;
26014;SDS011;13793;55.388;37.844;2023-04-07T07:43:54;2.77;;;1.57;;
26014;SDS011;13793;55.388;37.844;2023-04-07T07:46:25;2.85;;;1.57;;
26014;SDS011;13793;55.388;37.844;2023-04-07T07:48:55;2.60;;;1.47;;
26014;SDS011;13793;55.388;37.844;2023-04-07T07:51:26;3.12;;;1.62;;
26014;SDS011;13793;55.388;37.844;2023-04-07T07:53:57;4.00;;;1.50;;
26014;SDS011;13793;55.388;37.844;2023-04-07T07:56:28;3.33;;;1.47;;
26014;SDS011;13793;55.388;37.844;2023-04-07T07:58:58;4.37;;;1.40;;
26014;SDS011;13793;55.388;37.844;2023-04-07T08:01:29;3.22;;;1.12;;
26014;SDS011;13793;55.388;37.844;2023-04-07T08:04:00;3.30;;;1.30;;
26014;SDS011;13793;55.388;37.844;2023-04-07T08:06:30;3.05;;;1.20;;
26014;SDS011;13793;55.388;37.844;2023-04-07T08:09:01;2.08;;;1.10;;
26014;SDS011;13793;55.388;37.844;2023-04-07T08:11:33;2.60;;;1.10;;
26014;SDS011;13793;55.388;37.844;2023-04-07T08:14:04;2.12;;;1.02;;
26014;SDS011;13793;55.388;37.844;2023-04-07T08:16:35;5.10;;;2.40;;
26014;SDS011;13793;55.388;37.844;2023-04-07T08:19:05;5.42;;;3.72;;
26014;SDS011;13793;55.388;37.844;2023-04-07T08:21:36;4.62;;;3.83;;
26014;SDS011;13793;55.388;37.844;2023-04-07T08:24:07;12.03;;;7.70;;
26014;SDS011;13793;55.388;37.844;2023-04-07T08:26:38;11.33;;;7.45;;
26014;SDS011;13793;55.388;37.844;2023-04-07T08:29:12;3.40;;;2.15;;
26014;SDS011;13793;55.388;37.844;2023-04-07T08:31:43;7.53;;;4.22;;
26014;SDS011;13793;55.388;37.844;2023-04-07T08:34:13;3.60;;;1.60;;
26014;SDS011;13793;55.388;37.844;2023-04-07T08:36:44;1.40;;;1.00;;
26014;SDS011;13793;55.388;37.844;2023-04-07T08:39:14;2.75;;;0.98;;
26014;SDS011;13793;55.388;37.844;2023-04-07T08:41:45;1.95;;;1.00;;
26014;SDS011;13793;55.388;37.844;2023-04-07T08:44:16;1.30;;;1.20;;
26014;SDS011;13793;55.388;37.844;2023-04-07T08:46:47;2.58;;;1.22;;
26014;SDS011;13793;55.388;37.844;2023-04-07T08:49:18;4.22;;;1.00;;
26014;SDS011;13793;55.388;37.844;2023-04-07T08:51:49;3.85;;;1.40;;
26014;SDS011;13793;55.388;37.844;2023-04-07T08:54:20;1.62;;;0.98;;
26014;SDS011;13793;55.388;37.844;2023-04-07T08:56:51;2.80;;;1.80;;
26014;SDS011;13793;55.388;37.844;2023-04-07T08:59:21;3.47;;;1.40;;
26014;SDS011;13793;55.388;37.844;2023-04-07T09:01:54;2.83;;;1.20;;
26014;SDS011;13793;55.388;37.844;2023-04-07T09:04:25;2.20;;;0.90;;
26014;SDS011;13793;55.388;37.844;2023-04-07T09:06:56;3.80;;;1.45;;
26014;SDS011;13793;55.388;37.844;2023-04-07T09:09:28;3.17;;;1.07;;
26014;SDS011;13793;55.388;37.844;2023-04-07T09:11:59;2.55;;;1.17;;
26014;SDS011;13793;55.388;37.844;2023-04-07T09:14:30;3.77;;;1.12;;
26014;SDS011;13793;55.388;37.844;2023-04-07T09:17:00;2.52;;;1.00;;
26014;SDS011;13793;55.388;37.844;2023-04-07T09:19:31;2.25;;;1.12;;
26014;SDS011;13793;55.388;37.844;2023-04-07T09:22:02;1.72;;;1.00;;
26014;SDS011;13793;55.388;37.844;2023-04-07T09:24:32;3.27;;;1.10;;
26014;SDS011;13793;55.388;37.844;2023-04-07T09:27:10;2.77;;;0.90;;
26014;SDS011;13793;55.388;37.844;2023-04-07T09:29:41;2.05;;;1.20;;
26014;SDS011;13793;55.388;37.844;2023-04-07T09:32:22;8.33;;;4.20;;
26014;SDS011;13793;55.388;37.844;2023-04-07T09:34:52;2.08;;;1.25;;
26014;SDS011;13793;55.388;37.844;2023-04-07T09:37:22;8.15;;;2.20;;
26014;SDS011;13793;55.388;37.844;2023-04-07T09:39:53;4.03;;;1.87;;
26014;SDS011;13793;55.388;37.844;2023-04-07T09:42:23;2.83;;;1.30;;
26014;SDS011;13793;55.388;37.844;2023-04-07T09:44:54;2.50;;;1.30;;
26014;SDS011;13793;55.388;37.844;2023-04-07T09:47:25;1.32;;;0.90;;
26014;SDS011;13793;55.388;37.844;2023-04-07T09:50:00;3.67;;;1.10;;
26014;SDS011;13793;55.388;37.844;2023-04-07T09:52:48;1.47;;;0.93;;
26014;SDS011;13793;55.388;37.844;2023-04-07T09:55:23;2.42;;;1.10;;
26014;SDS011;13793;55.388;37.844;2023-04-07T09:57:53;2.35;;;1.15;;
26014;SDS011;13793;55.388;37.844;2023-04-07T10:00:24;1.90;;;1.30;;
26014;SDS011;13793;55.388;37.844;2023-04-07T10:02:55;2.27;;;1.00;;
26014;SDS011;13793;55.388;37.844;2023-04-07T10:05:26;2.45;;;1.07;;
26014;SDS011;13793;55.388;37.844;2023-04-07T10:07:57;3.72;;;1.10;;
26014;SDS011;13793;55.388;37.844;2023-04-07T10:10:29;2.17;;;1.10;;
26014;SDS011;13793;55.388;37.844;2023-04-07T10:13:00;1.90;;;0.90;;
26014;SDS011;13793;55.388;37.844;2023-04-07T10:15:33;2.92;;;1.00;;
26014;SDS011;13793;55.388;37.844;2023-04-07T10:18:05;3.35;;;1.85;;
26014;SDS011;13793;55.388;37.844;2023-04-07T10:20:38;2.52;;;1.22;;
26014;SDS011;13793;55.388;37.844;2023-04-07T10:23:15;1.30;;;0.90;;
26014;SDS011;13793;55.388;37.844;2023-04-07T10:25:59;1.10;;;0.90;;
26014;SDS011;13793;55.388;37.844;2023-04-07T10:28:30;3.50;;;1.52;;
26014;SDS011;13793;55.388;37.844;2023-04-07T10:31:02;4.70;;;1.27;;
26014;SDS011;13793;55.388;37.844;2023-04-07T10:33:46;2.17;;;1.30;;
26014;SDS011;13793;55.388;37.844;2023-04-07T10:36:18;2.80;;;1.30;;
26014;SDS011;13793;55.388;37.844;2023-04-07T10:41:41;1.40;;;1.10;;
26014;SDS011;13793;55.388;37.844;2023-04-07T10:47:10;1.72;;;0.90;;
26014;SDS011;13793;55.388;37.844;2023-04-07T10:50:13;1.70;;;1.00;;
26014;SDS011;13793;55.388;37.844;2023-04-07T10:52:20;3.20;;;1.00;;
26014;SDS011;13793;55.388;37.844;2023-04-07T10:55:36;2.35;;;1.00;;
26014;SDS011;13793;55.388;37.844;2023-04-07T11:03:41;2.37;;;1.02;;
26014;SDS011;13793;55.388;37.844;2023-04-07T11:06:13;3.25;;;0.90;;
26014;SDS011;13793;55.388;37.844;2023-04-07T11:08:44;2.17;;;1.00;;
26014;SDS011;13793;55.388;37.844;2023-04-07T11:11:18;2.00;;;1.02;;
26014;SDS011;13793;55.388;37.844;2023-04-07T11:13:49;3.80;;;1.10;;
26014;SDS011;13793;55.388;37.844;2023-04-07T11:16:20;3.92;;;1.10;;
26014;SDS011;13793;55.388;37.844;2023-04-07T11:18:54;1.82;;;1.20;;
26014;SDS011;13793;55.388;37.844;2023-04-07T11:21:26;2.92;;;0.93;;
26014;SDS011;13793;55.388;37.844;2023-04-07T11:23:57;2.55;;;1.10;;
26014;SDS011;13793;55.388;37.844;2023-04-07T11:26:28;1.55;;;1.02;;
26014;SDS011;13793;55.388;37.844;2023-04-07T11:28:59;2.52;;;1.00;;
26014;SDS011;13793;55.388;37.844;2023-04-07T11:31:30;1.90;;;0.80;;
26014;SDS011;13793;55.388;37.844;2023-04-07T11:34:01;3.60;;;1.25;;
26014;SDS011;13793;55.388;37.844;2023-04-07T11:36:33;1.87;;;0.80;;
26014;SDS011;13793;55.388;37.844;2023-04-07T11:39:16;2.27;;;0.80;;
26014;SDS011;13793;55.388;37.844;2023-04-07T11:41:49;2.22;;;1.07;;
26014;SDS011;13793;55.388;37.844;2023-04-07T11:44:19;1.85;;;1.00;;
26014;SDS011;13793;55.388;37.844;2023-04-07T11:46:59;2.02;;;0.90;;
26014;SDS011;13793;55.388;37.844;2023-04-07T11:49:31;3.05;;;1.00;;
26014;SDS011;13793;55.388;37.844;2023-04-07T11:52:03;2.55;;;0.90;;
26014;SDS011;13793;55.388;37.844;2023-04-07T11:54:40;2.77;;;1.00;;
26014;SDS011;13793;55.388;37.844;2023-04-07T11:57:13;1.93;;;0.93;;
26014;SDS011;13793;55.388;37.844;2023-04-07T11:59:46;2.87;;;0.80;;
26014;SDS011;13793;55.388;37.844;2023-04-07T12:02:32;2.35;;;1.10;;
26014;SDS011;13793;55.388;37.844;2023-04-07T12:05:06;3.37;;;1.12;;
26014;SDS011;13793;55.388;37.844;2023-04-07T12:07:38;2.42;;;0.95;;
26014;SDS011;13793;55.388;37.844;2023-04-07T12:10:21;3.15;;;1.00;;
26014;SDS011;13793;55.388;37.844;2023-04-07T12:12:53;1.80;;;1.00;;
26014;SDS011;13793;55.388;37.844;2023-04-07T12:15:24;2.45;;;1.00;;
26014;SDS011;13793;55.388;37.844;2023-04-07T12:17:55;4.58;;;1.20;;
26014;SDS011;13793;55.388;37.844;2023-04-07T12:20:28;3.62;;;1.02;;
26014;SDS011;13793;55.388;37.844;2023-04-07T12:22:59;2.45;;;0.93;;
26014;SDS011;13793;55.388;37.844;2023-04-07T12:25:29;2.60;;;1.12;;
26014;SDS011;13793;55.388;37.844;2023-04-07T12:28:00;1.82;;;0.90;;
26014;SDS011;13793;55.388;37.844;2023-04-07T12:30:30;3.50;;;1.07;;
26014;SDS011;13793;55.388;37.844;2023-04-07T12:33:00;3.08;;;1.00;;
26014;SDS011;13793;55.388;37.844;2023-04-07T12:35:34;1.82;;;1.10;;
26014;SDS011;13793;55.388;37.844;2023-04-07T12:38:06;1.42;;;0.80;;
26014;SDS011;13793;55.388;37.844;2023-04-07T12:40:36;1.47;;;0.93;;
26014;SDS011;13793;55.388;37.844;2023-04-07T12:43:07;3.40;;;1.00;;
26014;SDS011;13793;55.388;37.844;2023-04-07T12:45:38;2.98;;;1.10;;
26014;SDS011;13793;55.388;37.844;2023-04-07T12:48:08;2.50;;;1.10;;
26014;SDS011;13793;55.388;37.844;2023-04-07T12:50:39;3.42;;;1.10;;
26014;SDS011;13793;55.388;37.844;2023-04-07T12:53:09;2.10;;;1.00;;
26014;SDS011;13793;55.388;37.844;2023-04-07T12:55:39;2.87;;;1.30;;
26014;SDS011;13793;55.388;37.844;2023-04-07T12:58:10;3.22;;;1.00;;
26014;SDS011;13793;55.388;37.844;2023-04-07T13:00:41;2.98;;;1.00;;
26014;SDS011;13793;55.388;37.844;2023-04-07T13:03:11;1.60;;;1.10;;
26014;SDS011;13793;55.388;37.844;2023-04-07T13:05:42;4.05;;;1.30;;
26014;SDS011;13793;55.388;37.844;2023-04-07T13:08:12;3.37;;;1.40;;
26014;SDS011;13793;55.388;37.844;2023-04-07T13:10:44;2.72;;;1.50;;
26014;SDS011;13793;55.388;37.844;2023-04-07T13:13:15;1.67;;;1.20;;
26014;SDS011;13793;55.388;37.844;2023-04-07T13:15:46;1.82;;;1.10;;
26014;SDS011;13793;55.388;37.844;2023-04-07T13:18:16;3.77;;;1.30;;
26014;SDS011;13793;55.388;37.844;2023-04-07T13:20:47;3.80;;;1.30;;
26014;SDS011;13793;55.388;37.844;2023-04-07T13:23:18;2.92;;;1.10;;
26014;SDS011;13793;55.388;37.844;2023-04-07T13:25:49;3.80;;;1.10;;
26014;SDS011;13793;55.388;37.844;2023-04-07T13:28:31;2.33;;;1.20;;
26014;SDS011;13793;55.388;37.844;2023-04-07T13:31:02;1.98;;;1.35;;
26014;SDS011;13793;55.388;37.844;2023-04-07T13:33:33;4.40;;;1.20;;
26014;SDS011;13793;55.388;37.844;2023-04-07T13:36:05;3.33;;;1.22;;
26014;SDS011;13793;55.388;37.844;2023-04-07T13:38:35;2.15;;;1.10;;
26014;SDS011;13793;55.388;37.844;2023-04-07T13:41:06;4.30;;;1.10;;
26014;SDS011;13793;55.388;37.844;2023-04-07T13:43:36;1.92;;;1.00;;
26014;SDS011;13793;55.388;37.844;2023-04-07T13:46:07;2.62;;;1.20;;
26014;SDS011;13793;55.388;37.844;2023-04-07T13:48:39;2.67;;;1.22;;
26014;SDS011;13793;55.388;37.844;2023-04-07T13:51:10;7.67;;;1.70;;
26014;SDS011;13793;55.388;37.844;2023-04-07T13:53:41;1.80;;;1.30;;
26014;SDS011;13793;55.388;37.844;2023-04-07T13:56:11;3.27;;;1.35;;
26014;SDS011;13793;55.388;37.844;2023-04-07T13:58:41;1.72;;;1.25;;
26014;SDS011;13793;55.388;37.844;2023-04-07T14:01:12;2.65;;;1.50;;
26014;SDS011;13793;55.388;37.844;2023-04-07T14:03:43;3.60;;;1.37;;
26014;SDS011;13793;55.388;37.844;2023-04-07T14:06:14;2.20;;;1.50;;
26014;SDS011;13793;55.388;37.844;2023-04-07T14:08:44;3.15;;;1.20;;
26014;SDS011;13793;55.388;37.844;2023-04-07T14:11:15;3.52;;;1.17;;
26014;SDS011;13793;55.388;37.844;2023-04-07T14:13:47;3.00;;;1.30;;
26014;SDS011;13793;55.388;37.844;2023-04-07T14:16:17;2.83;;;1.10;;
26014;SDS011;13793;55.388;37.844;2023-04-07T14:18:48;1.67;;;1.22;;
26014;SDS011;13793;55.388;37.844;2023-04-07T14:21:19;4.35;;;1.40;;
26014;SDS011;13793;55.388;37.844;2023-04-07T14:23:50;2.60;;;1.40;;
26014;SDS011;13793;55.388;37.844;2023-04-07T14:26:21;2.62;;;1.30;;
26014;SDS011;13793;55.388;37.844;2023-04-07T14:28:51;3.47;;;1.77;;
26014;SDS011;13793;55.388;37.844;2023-04-07T14:31:22;3.17;;;1.72;;
26014;SDS011;13793;55.388;37.844;2023-04-07T14:33:53;2.35;;;1.50;;
26014;SDS011;13793;55.388;37.844;2023-04-07T14:36:23;4.70;;;1.65;;
26014;SDS011;13793;55.388;37.844;2023-04-07T14:38:54;1.92;;;1.12;;
26014;SDS011;13793;55.388;37.844;2023-04-07T14:41:25;2.67;;;1.35;;
26014;SDS011;13793;55.388;37.844;2023-04-07T14:43:56;3.35;;;1.20;;
26014;SDS011;13793;55.388;37.844;2023-04-07T14:46:26;2.45;;;1.35;;
26014;SDS011;13793;55.388;37.844;2023-04-07T14:48:57;4.12;;;1.80;;
26014;SDS011;13793;55.388;37.844;2023-04-07T14:51:27;4.67;;;1.40;;
26014;SDS011;13793;55.388;37.844;2023-04-07T14:53:58;3.15;;;1.47;;
26014;SDS011;13793;55.388;37.844;2023-04-07T14:56:28;3.52;;;1.20;;
26014;SDS011;13793;55.388;37.844;2023-04-07T14:58:59;3.67;;;1.22;;
26014;SDS011;13793;55.388;37.844;2023-04-07T15:01:30;3.58;;;1.10;;
26014;SDS011;13793;55.388;37.844;2023-04-07T15:04:01;2.85;;;1.20;;
26014;SDS011;13793;55.388;37.844;2023-04-07T15:06:31;3.05;;;1.30;;
26014;SDS011;13793;55.388;37.844;2023-04-07T15:09:02;2.15;;;1.15;;
26014;SDS011;13793;55.388;37.844;2023-04-07T15:11:45;5.28;;;1.50;;
26014;SDS011;13793;55.388;37.844;2023-04-07T15:14:15;10.05;;;3.98;;
26014;SDS011;13793;55.388;37.844;2023-04-07T15:16:46;2.60;;;1.60;;
26014;SDS011;13793;55.388;37.844;2023-04-07T15:19:17;2.90;;;1.12;;
26014;SDS011;13793;55.388;37.844;2023-04-07T15:22:00;2.17;;;1.40;;
26014;SDS011;13793;55.388;37.844;2023-04-07T15:24:31;2.65;;;1.25;;